createdAt,value
2022-10-05T00:00:22.223Z,99.90
2022-10-05T00:02:24.378Z,99.90
2022-10-05T00:04:28.197Z,99.90
2022-10-05T00:06:30.393Z,99.90
2022-10-05T00:08:33.422Z,99.90
2022-10-05T00:10:35.115Z,99.90
2022-10-05T00:12:36.789Z,99.90
2022-10-05T00:14:39.379Z,99.90
2022-10-05T00:16:41.091Z,99.90
2022-10-05T00:18:43.938Z,99.90
2022-10-05T00:20:46.620Z,99.90
2022-10-05T00:22:48.259Z,99.90
2022-10-05T00:24:51.622Z,99.90
2022-10-05T00:26:57.724Z,99.90
2022-10-05T00:29:01.544Z,99.90
2022-10-05T00:31:09.835Z,99.90
2022-10-05T00:33:11.457Z,99.90
2022-10-05T00:35:13.932Z,99.90
2022-10-05T00:37:15.623Z,99.90
2022-10-05T00:39:18.016Z,99.90
2022-10-05T00:41:34.583Z,99.90
2022-10-05T00:43:44.890Z,99.90
2022-10-05T00:45:50.865Z,99.90
2022-10-05T00:47:58.355Z,99.90
2022-10-05T00:50:08.181Z,99.90
2022-10-05T00:52:20.300Z,99.90
2022-10-05T00:54:41.745Z,99.90
2022-10-05T00:56:55.651Z,99.90
2022-10-05T00:59:08.975Z,99.90
2022-10-05T01:01:15.199Z,99.90
2022-10-05T01:03:24.513Z,99.90
2022-10-05T01:05:35.129Z,99.90
2022-10-05T01:07:58.231Z,99.90
2022-10-05T01:10:08.956Z,99.90
2022-10-05T01:12:27.426Z,99.90
2022-10-05T01:14:41.281Z,99.90
2022-10-05T01:16:55.893Z,99.90
2022-10-05T01:19:01.422Z,99.90
2022-10-05T01:21:10.167Z,99.90
2022-10-05T01:23:14.866Z,99.90
2022-10-05T01:25:19.706Z,99.90
2022-10-05T01:27:33.609Z,99.90
2022-10-05T01:29:49.711Z,99.90
2022-10-05T01:31:57.197Z,99.90
2022-10-05T01:34:10.573Z,99.90
2022-10-05T01:36:19.211Z,99.90
2022-10-05T01:38:21.218Z,99.90
2022-10-05T01:40:33.183Z,99.90
2022-10-05T01:42:53.622Z,99.90
2022-10-05T01:45:01.393Z,99.90
2022-10-05T01:47:08.044Z,99.90
2022-10-05T01:49:18.944Z,99.90
2022-10-05T01:51:39.673Z,99.90
2022-10-05T01:53:59.781Z,99.90
2022-10-05T01:56:04.492Z,99.90
2022-10-05T01:58:10.246Z,99.90
2022-10-05T02:00:16.360Z,99.90
2022-10-05T02:02:19.162Z,99.90
2022-10-05T02:05:00.241Z,99.90
2022-10-05T02:06:55.956Z,99.90
2022-10-05T02:09:07.127Z,99.90
2022-10-05T02:11:10.998Z,99.90
2022-10-05T02:13:12.779Z,99.90
2022-10-05T02:15:17.186Z,99.90
2022-10-05T02:17:31.898Z,99.90
2022-10-05T02:19:41.807Z,99.90
2022-10-05T02:21:44.849Z,99.90
2022-10-05T02:23:48.292Z,99.90
2022-10-05T02:25:51.658Z,99.90
2022-10-05T02:27:54.697Z,99.90
2022-10-05T02:30:06.744Z,99.90
2022-10-05T02:32:11.540Z,99.90
2022-10-05T02:34:39.856Z,99.90
2022-10-05T02:36:41.518Z,99.90
2022-10-05T02:38:49.020Z,99.90
2022-10-05T02:40:58.595Z,99.90
2022-10-05T02:43:32.843Z,99.90
2022-10-05T02:45:40.566Z,99.90
2022-10-05T02:47:51.460Z,99.90
2022-10-05T02:50:03.202Z,99.90
2022-10-05T02:52:04.788Z,99.90
2022-10-05T02:54:06.406Z,99.90
2022-10-05T02:56:37.267Z,99.90
2022-10-05T02:59:02.181Z,99.90
2022-10-05T03:01:11.758Z,99.90
2022-10-05T03:03:25.369Z,99.90
2022-10-05T03:05:30.852Z,99.90
2022-10-05T03:07:35.000Z,99.90
2022-10-05T03:09:40.374Z,99.90
2022-10-05T03:11:51.258Z,99.90
2022-10-05T03:14:01.697Z,99.90
2022-10-05T03:16:06.176Z,99.90
2022-10-05T03:18:16.862Z,99.90
2022-10-05T03:20:33.334Z,99.90
2022-10-05T03:22:53.400Z,99.90
2022-10-05T03:24:55.095Z,99.90
2022-10-05T03:27:02.443Z,99.90
2022-10-05T03:29:16.106Z,99.90
2022-10-05T03:31:17.782Z,99.90
2022-10-05T03:33:25.444Z,99.90
2022-10-05T03:35:32.964Z,99.90
2022-10-05T03:37:53.349Z,99.90
2022-10-05T03:40:02.011Z,99.90
2022-10-05T03:42:06.138Z,99.90
2022-10-05T03:44:10.321Z,99.90
2022-10-05T03:46:11.940Z,99.90
2022-10-05T03:48:22.668Z,99.90
2022-10-05T03:50:36.496Z,99.90
2022-10-05T03:52:47.672Z,99.90
2022-10-05T03:54:51.531Z,99.90
2022-10-05T03:56:58.006Z,99.90
2022-10-05T03:59:03.275Z,99.90
2022-10-05T04:01:08.732Z,99.90
2022-10-05T04:03:10.372Z,99.90
2022-10-05T04:05:19.636Z,99.90
2022-10-05T04:07:27.678Z,99.90
2022-10-05T04:09:29.464Z,99.90
2022-10-05T04:11:39.885Z,99.90
2022-10-05T04:13:47.737Z,99.90
2022-10-05T04:15:55.483Z,99.90
2022-10-05T04:18:03.536Z,99.90
2022-10-05T04:20:25.584Z,99.90
2022-10-05T04:22:43.222Z,99.90
2022-10-05T04:24:47.388Z,99.90
2022-10-05T04:27:00.199Z,99.90
2022-10-05T04:29:12.204Z,99.90
2022-10-05T04:31:17.224Z,99.90
2022-10-05T04:33:20.499Z,99.90
2022-10-05T04:35:29.799Z,99.90
2022-10-05T04:37:42.189Z,99.90
2022-10-05T04:40:04.812Z,99.90
2022-10-05T04:42:10.562Z,99.90
2022-10-05T04:44:30.614Z,99.90
2022-10-05T04:46:44.754Z,99.90
2022-10-05T04:48:56.370Z,99.90
2022-10-05T04:50:58.039Z,99.90
2022-10-05T04:53:21.242Z,99.90
2022-10-05T04:55:37.735Z,99.90
2022-10-05T04:57:39.347Z,99.90
2022-10-05T04:59:53.981Z,99.90
2022-10-05T05:02:01.339Z,99.90
2022-10-05T05:04:03.000Z,99.90
2022-10-05T05:06:17.990Z,99.90
2022-10-05T05:08:29.395Z,99.90
2022-10-05T05:10:44.022Z,99.90
2022-10-05T05:12:45.624Z,99.90
2022-10-05T05:15:02.638Z,99.90
2022-10-05T05:17:14.031Z,99.90
2022-10-05T05:19:35.155Z,99.90
2022-10-05T05:21:37.963Z,99.90
2022-10-05T05:23:42.533Z,99.90
2022-10-05T05:25:47.118Z,99.90
2022-10-05T05:27:52.679Z,99.90
2022-10-05T05:30:23.574Z,99.90
2022-10-05T05:32:25.228Z,99.90
2022-10-05T05:34:45.738Z,99.90
2022-10-05T05:36:59.236Z,99.90
2022-10-05T05:39:06.775Z,99.90
2022-10-05T05:41:27.450Z,99.90
2022-10-05T05:43:41.423Z,99.90
2022-10-05T05:45:48.900Z,99.90
2022-10-05T05:47:52.612Z,99.90
2022-10-05T05:50:06.371Z,99.90
2022-10-05T05:52:41.200Z,99.90
2022-10-05T05:54:46.556Z,99.90
2022-10-05T05:56:52.356Z,99.90
2022-10-05T05:58:56.979Z,99.90
2022-10-05T06:01:01.396Z,99.90
2022-10-05T06:03:29.177Z,99.90
2022-10-05T06:05:38.257Z,99.90
2022-10-05T06:07:40.226Z,99.90
2022-10-05T06:09:53.541Z,99.90
2022-10-05T06:12:15.423Z,99.90
2022-10-05T06:14:40.078Z,99.90
2022-10-05T06:16:46.359Z,99.90
2022-10-05T06:18:55.330Z,99.90
2022-10-05T06:21:02.523Z,99.90
2022-10-05T06:23:07.114Z,99.90
2022-10-05T06:25:15.762Z,99.90
2022-10-05T06:27:55.529Z,99.90
2022-10-05T06:30:03.436Z,99.90
2022-10-05T06:32:06.793Z,99.90
2022-10-05T06:34:08.411Z,99.90
2022-10-05T06:36:16.120Z,99.90
2022-10-05T06:38:17.986Z,99.90
2022-10-05T06:40:38.368Z,99.90
2022-10-05T06:43:05.670Z,99.90
2022-10-05T06:45:15.038Z,99.90
2022-10-05T06:47:23.217Z,99.90
2022-10-05T06:49:27.410Z,99.90
2022-10-05T06:51:38.964Z,99.90
2022-10-05T06:53:44.339Z,99.90
2022-10-05T06:55:45.998Z,99.90
2022-10-05T06:57:54.962Z,99.90
2022-10-05T07:00:02.051Z,99.90
2022-10-05T07:02:14.373Z,99.90
2022-10-05T07:04:22.845Z,99.90
2022-10-05T07:06:35.071Z,99.90
2022-10-05T07:08:48.643Z,99.90
2022-10-05T07:11:01.743Z,99.90
2022-10-05T07:13:06.223Z,99.90
2022-10-05T07:15:07.931Z,99.90
2022-10-05T07:17:15.342Z,99.90
2022-10-05T07:19:35.742Z,99.90
2022-10-05T07:21:49.567Z,99.90
2022-10-05T07:24:00.519Z,99.90
2022-10-05T07:26:09.466Z,99.90
2022-10-05T07:28:17.553Z,99.90
2022-10-05T07:30:19.438Z,99.90
2022-10-05T07:32:23.844Z,99.90
2022-10-05T07:34:44.367Z,99.90
2022-10-05T07:37:23.509Z,99.90
2022-10-05T07:39:58.428Z,99.90
2022-10-05T07:42:09.722Z,99.90
2022-10-05T07:44:14.557Z,99.90
2022-10-05T07:46:21.271Z,99.90
2022-10-05T07:48:41.720Z,99.90
2022-10-05T07:50:58.645Z,99.90
2022-10-05T07:53:22.560Z,99.90
2022-10-05T07:55:31.892Z,99.90
2022-10-05T07:57:45.050Z,99.90
2022-10-05T07:59:56.747Z,99.90
2022-10-05T08:02:06.300Z,99.90
2022-10-05T08:04:14.197Z,99.90
2022-10-05T08:06:29.029Z,99.90
2022-10-05T08:08:33.535Z,99.90
2022-10-05T08:10:50.335Z,99.90
2022-10-05T08:12:58.897Z,99.90
2022-10-05T08:15:17.561Z,99.90
2022-10-05T08:17:28.053Z,99.90
2022-10-05T08:19:34.116Z,99.90
2022-10-05T08:21:38.037Z,99.90
2022-10-05T08:23:44.678Z,99.90
2022-10-05T08:25:59.742Z,99.90
2022-10-05T08:28:24.634Z,99.90
2022-10-05T08:30:26.327Z,99.90
2022-10-05T08:32:31.341Z,99.90
2022-10-05T08:35:02.769Z,99.90
2022-10-05T08:37:12.214Z,99.90
2022-10-05T08:39:17.368Z,99.90
2022-10-05T08:41:19.018Z,99.90
2022-10-05T08:43:35.809Z,99.90
2022-10-05T08:45:43.588Z,99.90
2022-10-05T08:48:04.080Z,99.90
2022-10-05T08:50:08.761Z,99.90
2022-10-05T08:52:33.257Z,99.90
2022-10-05T08:54:41.046Z,99.90
2022-10-05T08:56:45.105Z,99.90
2022-10-05T08:58:46.710Z,99.90
2022-10-05T09:00:55.043Z,99.90
2022-10-05T09:02:59.504Z,99.90
2022-10-05T09:05:01.136Z,99.90
2022-10-05T09:07:15.371Z,99.90
2022-10-05T09:09:23.086Z,99.90
2022-10-05T09:11:25.361Z,99.90
2022-10-05T09:13:45.608Z,99.90
2022-10-05T09:15:47.343Z,99.90
2022-10-05T09:18:07.324Z,99.90
2022-10-05T09:20:17.947Z,99.90
2022-10-05T09:22:38.010Z,99.90
2022-10-05T09:24:57.152Z,99.90
2022-10-05T09:27:01.997Z,99.90
2022-10-05T09:29:14.316Z,99.90
2022-10-05T09:31:35.799Z,99.90
2022-10-05T09:33:53.834Z,99.90
2022-10-05T09:36:15.544Z,99.90
2022-10-05T09:38:40.084Z,99.90
2022-10-05T09:40:54.008Z,99.90
2022-10-05T09:42:55.672Z,99.90
2022-10-05T09:45:20.455Z,99.90
2022-10-05T09:47:36.206Z,99.90
2022-10-05T09:49:56.539Z,99.90
2022-10-05T09:51:58.755Z,99.90
2022-10-05T09:54:19.113Z,98.90
2022-10-05T09:56:34.974Z,99.30
2022-10-05T09:58:55.300Z,98.70
2022-10-05T10:01:09.685Z,97.80
2022-10-05T10:03:24.236Z,95.30
2022-10-05T10:05:39.266Z,95.00
2022-10-05T10:07:43.897Z,95.20
2022-10-05T10:09:58.058Z,95.40
2022-10-05T10:12:05.532Z,95.30
2022-10-05T10:14:19.551Z,93.40
2022-10-05T10:16:35.535Z,94.60
2022-10-05T10:18:48.864Z,93.60
2022-10-05T10:21:16.736Z,94.10
2022-10-05T10:23:18.358Z,94.20
2022-10-05T10:25:20.376Z,93.10
2022-10-05T10:27:37.103Z,93.90
2022-10-05T10:29:46.039Z,93.60
2022-10-05T10:31:47.907Z,92.80
2022-10-05T10:33:59.037Z,93.20
2022-10-05T10:36:09.838Z,93.30
2022-10-05T10:38:30.285Z,93.50
2022-10-05T10:40:50.772Z,93.80
2022-10-05T10:42:56.226Z,93.50
2022-10-05T10:45:03.650Z,93.40
2022-10-05T10:47:24.123Z,92.70
2022-10-05T10:49:28.822Z,93.70
2022-10-05T10:51:45.822Z,90.90
2022-10-05T10:54:03.517Z,90.80
2022-10-05T10:56:23.888Z,91.60
2022-10-05T10:58:25.605Z,89.80
2022-10-05T11:00:33.551Z,90.40
2022-10-05T11:02:49.889Z,91.70
2022-10-05T11:05:02.906Z,91.20
2022-10-05T11:07:19.460Z,89.30
2022-10-05T11:09:50.408Z,87.10
2022-10-05T11:12:10.730Z,85.60
2022-10-05T11:14:47.725Z,86.50
2022-10-05T11:17:04.863Z,84.70
2022-10-05T11:19:35.110Z,84.40
2022-10-05T11:21:42.287Z,85.00
2022-10-05T11:24:03.798Z,85.70
2022-10-05T11:26:08.421Z,86.00
2022-10-05T11:28:19.774Z,88.60
2022-10-05T11:30:25.665Z,86.40
2022-10-05T11:32:27.800Z,84.10
2022-10-05T11:34:48.006Z,84.10
2022-10-05T11:36:49.592Z,80.30
2022-10-05T11:38:54.194Z,81.50
2022-10-05T11:40:58.810Z,82.60
2022-10-05T11:43:18.624Z,83.00
2022-10-05T11:45:36.152Z,81.70
2022-10-05T11:47:43.436Z,80.80
2022-10-05T11:49:54.150Z,81.50
2022-10-05T11:52:01.726Z,81.30
2022-10-05T11:54:03.302Z,80.30
2022-10-05T11:56:10.794Z,81.10
2022-10-05T11:58:15.073Z,81.00
2022-10-05T12:00:25.115Z,79.60
2022-10-05T12:02:45.320Z,80.00
2022-10-05T12:04:56.125Z,82.10
2022-10-05T12:07:12.939Z,79.00
2022-10-05T12:09:21.770Z,78.30
2022-10-05T12:11:26.447Z,80.00
2022-10-05T12:13:28.064Z,79.40
2022-10-05T12:15:53.145Z,80.10
2022-10-05T12:17:57.841Z,79.40
2022-10-05T12:20:03.045Z,80.40
2022-10-05T12:22:15.405Z,79.50
2022-10-05T12:24:26.807Z,82.00
2022-10-05T12:26:28.741Z,79.60
2022-10-05T12:28:37.086Z,77.60
2022-10-05T12:31:00.998Z,79.50
2022-10-05T12:33:02.695Z,78.20
2022-10-05T12:35:08.452Z,76.80
2022-10-05T12:37:28.469Z,74.30
2022-10-05T12:39:39.423Z,74.30
2022-10-05T12:41:45.184Z,73.50
2022-10-05T12:43:55.836Z,74.70
2022-10-05T12:45:57.602Z,74.50
2022-10-05T12:48:14.611Z,77.00
2022-10-05T12:50:16.267Z,75.70
2022-10-05T12:52:26.738Z,75.80
2022-10-05T12:54:34.556Z,76.60
2022-10-05T12:56:48.321Z,79.80
2022-10-05T12:59:08.690Z,75.60
2022-10-05T13:01:20.634Z,76.60
2022-10-05T13:03:28.390Z,75.00
2022-10-05T13:05:37.623Z,74.30
2022-10-05T13:07:51.357Z,73.40
2022-10-05T13:09:58.936Z,75.70
2022-10-05T13:12:06.242Z,72.80
2022-10-05T13:14:26.480Z,72.80
2022-10-05T13:16:30.771Z,75.40
2022-10-05T13:18:38.548Z,74.00
2022-10-05T13:20:58.052Z,74.40
2022-10-05T13:23:02.762Z,74.60
2022-10-05T13:25:04.332Z,76.70
2022-10-05T13:27:12.938Z,75.40
2022-10-05T13:29:28.935Z,72.80
2022-10-05T13:31:30.600Z,72.60
2022-10-05T13:33:39.059Z,74.80
2022-10-05T13:35:40.680Z,72.60
2022-10-05T13:38:01.737Z,71.80
2022-10-05T13:40:06.296Z,72.00
2022-10-05T13:42:19.282Z,71.80
2022-10-05T13:44:23.896Z,73.60
2022-10-05T13:46:36.893Z,71.60
2022-10-05T13:48:57.607Z,72.80
2022-10-05T13:51:07.271Z,75.50
2022-10-05T13:53:21.914Z,71.80
2022-10-05T13:55:29.782Z,72.10
2022-10-05T13:57:49.757Z,72.30
2022-10-05T13:59:57.308Z,72.40
2022-10-05T14:02:02.138Z,73.20
2022-10-05T14:04:16.059Z,71.20
2022-10-05T14:06:30.901Z,71.00
2022-10-05T14:08:34.071Z,75.40
2022-10-05T14:10:45.918Z,76.20
2022-10-05T14:12:54.177Z,71.50
2022-10-05T14:14:57.133Z,69.00
2022-10-05T14:16:59.939Z,72.00
2022-10-05T14:19:04.475Z,73.30
2022-10-05T14:21:08.660Z,73.50
2022-10-05T14:23:17.386Z,73.50
2022-10-05T14:25:24.011Z,70.20
2022-10-05T14:27:30.055Z,74.60
2022-10-05T14:29:35.784Z,77.70
2022-10-05T14:31:37.490Z,78.60
2022-10-05T14:33:39.443Z,77.20
2022-10-05T14:35:51.147Z,77.50
2022-10-05T14:37:58.867Z,78.70
2022-10-05T14:40:21.263Z,80.30
2022-10-05T14:42:24.561Z,77.40
2022-10-05T14:46:39.450Z,82.90
2022-10-05T14:48:42.429Z,75.40
2022-10-05T14:50:54.995Z,76.60
2022-10-05T14:53:11.712Z,78.10
2022-10-05T14:55:32.156Z,76.80
2022-10-05T14:57:39.919Z,74.40
2022-10-05T15:00:02.191Z,75.80
2022-10-05T15:02:08.108Z,77.20
2022-10-05T15:04:12.905Z,78.40
2022-10-05T15:06:29.884Z,81.30
2022-10-05T15:08:38.991Z,80.10
2022-10-05T15:10:42.200Z,80.20
2022-10-05T15:12:46.808Z,78.90
2022-10-05T15:14:50.094Z,79.30
2022-10-05T15:16:53.837Z,77.50
2022-10-05T15:18:56.720Z,78.80
2022-10-05T15:21:08.985Z,81.00
2022-10-05T15:23:20.027Z,79.50
2022-10-05T15:25:23.075Z,83.40
2022-10-05T15:27:43.537Z,81.00
2022-10-05T15:30:00.857Z,78.30
2022-10-05T15:32:03.065Z,84.40
2022-10-05T15:34:10.387Z,83.60
2022-10-05T15:36:35.420Z,84.00
2022-10-05T15:38:49.612Z,82.30
2022-10-05T15:40:51.268Z,85.30
2022-10-05T15:42:55.367Z,85.10
2022-10-05T15:44:56.996Z,85.20
2022-10-05T15:47:12.290Z,88.00
2022-10-05T15:49:52.587Z,90.10
2022-10-05T15:52:17.609Z,90.40
2022-10-05T15:54:42.743Z,91.20
2022-10-05T15:56:50.090Z,92.00
2022-10-05T15:59:01.695Z,92.80
2022-10-05T16:01:08.074Z,93.40
2022-10-05T16:03:27.428Z,95.20
2022-10-05T16:05:56.685Z,93.70
2022-10-05T16:08:16.900Z,94.80
2022-10-05T16:10:21.473Z,94.70
2022-10-05T16:12:32.344Z,94.40
2022-10-05T16:14:42.779Z,96.60
2022-10-05T16:16:44.517Z,97.60
2022-10-05T16:18:46.187Z,98.80
2022-10-05T16:20:53.846Z,99.90
2022-10-05T16:22:59.593Z,99.90
2022-10-05T16:25:22.246Z,99.90
2022-10-05T16:27:35.909Z,99.90
2022-10-05T16:29:37.504Z,99.90
2022-10-05T16:31:39.339Z,99.90
2022-10-05T16:33:54.665Z,99.90
2022-10-05T16:36:10.595Z,99.90
2022-10-05T16:38:32.680Z,99.90
2022-10-05T16:40:34.314Z,99.90
2022-10-05T16:42:38.939Z,99.90
2022-10-05T16:44:40.699Z,99.90
2022-10-05T16:46:48.350Z,99.90
2022-10-05T16:49:08.898Z,99.90
2022-10-05T16:51:16.747Z,99.90
2022-10-05T16:53:24.539Z,99.90
2022-10-05T16:55:35.554Z,99.90
2022-10-05T16:57:51.380Z,99.90
2022-10-05T17:00:08.121Z,99.90
2022-10-05T17:02:15.472Z,99.90
2022-10-05T17:04:26.427Z,99.90
2022-10-05T17:06:37.076Z,99.90
2022-10-05T17:09:14.409Z,99.90
2022-10-05T17:11:36.322Z,99.90
2022-10-05T17:13:44.122Z,99.90
2022-10-05T17:15:48.862Z,99.90
2022-10-05T17:18:09.066Z,99.90
2022-10-05T17:20:23.603Z,99.90
2022-10-05T17:22:31.291Z,99.90
2022-10-05T17:24:41.703Z,99.90
2022-10-05T17:27:03.034Z,99.90
2022-10-05T17:29:37.290Z,99.90
2022-10-05T17:31:59.940Z,99.90
2022-10-05T17:34:17.002Z,99.90
2022-10-05T17:36:18.814Z,99.90
2022-10-05T17:38:22.361Z,99.90
2022-10-05T17:40:33.538Z,99.90
2022-10-05T17:42:38.462Z,99.90
2022-10-05T17:44:40.153Z,99.90
2022-10-05T17:46:45.997Z,99.90
2022-10-05T17:48:50.174Z,99.90
2022-10-05T17:51:10.696Z,99.90
2022-10-05T17:53:41.485Z,99.90
2022-10-05T17:55:44.366Z,99.90
2022-10-05T17:57:46.217Z,99.90
2022-10-05T17:59:53.692Z,99.90
2022-10-05T18:02:14.177Z,99.90
2022-10-05T18:04:19.515Z,99.90
2022-10-05T18:06:29.528Z,99.90
2022-10-05T18:08:36.973Z,99.90
2022-10-05T18:11:17.399Z,99.90
2022-10-05T18:13:35.370Z,99.90
2022-10-05T18:15:41.008Z,99.90
2022-10-05T18:17:46.262Z,99.90
2022-10-05T18:20:07.434Z,99.90
2022-10-05T18:22:18.039Z,99.90
2022-10-05T18:24:25.264Z,99.90
2022-10-05T18:26:26.975Z,99.90
2022-10-05T18:28:29.070Z,99.90
2022-10-05T18:30:37.027Z,99.90
2022-10-05T18:32:50.786Z,99.90
2022-10-05T18:35:02.053Z,99.90
2022-10-05T18:37:03.977Z,99.90
2022-10-05T18:39:24.159Z,99.90
2022-10-05T18:41:34.779Z,99.90
2022-10-05T18:43:36.403Z,99.90
2022-10-05T18:45:45.549Z,99.90
2022-10-05T18:47:50.265Z,99.90
2022-10-05T18:49:51.939Z,99.90
2022-10-05T18:52:08.483Z,99.90
2022-10-05T18:54:26.535Z,99.90
2022-10-05T18:56:57.263Z,99.90
2022-10-05T18:59:08.117Z,99.90
2022-10-05T19:01:19.583Z,99.90
2022-10-05T19:03:30.125Z,99.90
2022-10-05T19:05:48.782Z,99.90
2022-10-05T19:07:50.848Z,99.90
2022-10-05T19:09:55.502Z,99.90
2022-10-05T19:12:09.612Z,99.90
2022-10-05T19:14:20.082Z,99.90
2022-10-05T19:16:24.354Z,99.90
2022-10-05T19:18:44.395Z,99.90
2022-10-05T19:21:04.158Z,99.90
2022-10-05T19:23:05.758Z,99.90
2022-10-05T19:25:21.065Z,99.90
2022-10-05T19:27:41.073Z,99.90
2022-10-05T19:29:59.971Z,99.90
2022-10-05T19:32:04.637Z,99.90
2022-10-05T19:34:19.168Z,99.90
2022-10-05T19:36:44.147Z,99.90
2022-10-05T19:39:04.581Z,99.90
2022-10-05T19:41:13.186Z,99.90
2022-10-05T19:43:23.700Z,99.90
2022-10-05T19:45:29.388Z,99.90
2022-10-05T19:47:37.566Z,99.90
2022-10-05T19:49:47.346Z,99.90
2022-10-05T19:51:49.982Z,99.90
2022-10-05T19:53:55.996Z,99.90
2022-10-05T19:56:10.621Z,99.90
2022-10-05T19:58:26.722Z,99.90
2022-10-05T20:00:33.821Z,99.90
2022-10-05T20:02:38.652Z,99.90
2022-10-05T20:04:44.839Z,99.90
2022-10-05T20:06:48.098Z,99.90
2022-10-05T20:08:51.844Z,99.90
2022-10-05T20:11:13.173Z,99.90
2022-10-05T20:13:19.656Z,99.90
2022-10-05T20:15:47.031Z,99.90
2022-10-05T20:18:07.169Z,99.90
2022-10-05T20:20:27.511Z,99.90
2022-10-05T20:22:36.013Z,99.90
2022-10-05T20:24:49.372Z,99.90
2022-10-05T20:27:16.537Z,99.90
2022-10-05T20:29:18.241Z,99.90
2022-10-05T20:31:20.230Z,99.90
2022-10-05T20:33:25.360Z,99.90
2022-10-05T20:35:30.614Z,99.90
2022-10-05T20:37:32.954Z,99.90
2022-10-05T20:39:34.657Z,99.90
2022-10-05T20:41:36.274Z,99.90
2022-10-05T20:43:39.287Z,99.90
2022-10-05T20:45:43.303Z,99.90
2022-10-05T20:47:47.274Z,99.90
2022-10-05T20:49:48.992Z,99.90
2022-10-05T20:51:51.456Z,99.90
2022-10-05T20:53:55.359Z,99.90
2022-10-05T20:56:04.613Z,99.90
2022-10-05T20:58:08.830Z,99.90
2022-10-05T21:00:11.425Z,99.90
2022-10-05T21:02:13.077Z,99.90
2022-10-05T21:04:19.021Z,99.90
2022-10-05T21:06:30.127Z,99.90
2022-10-05T21:08:31.847Z,99.90
2022-10-05T21:10:33.640Z,99.90
2022-10-05T21:12:35.441Z,99.90
2022-10-05T21:14:37.785Z,99.90
2022-10-05T21:16:41.160Z,99.90
2022-10-05T21:18:44.354Z,99.90
2022-10-05T21:20:47.865Z,99.90
2022-10-05T21:22:49.476Z,99.90
2022-10-05T21:24:51.144Z,99.90
2022-10-05T21:26:55.229Z,99.90
2022-10-05T21:28:58.341Z,99.90
2022-10-05T21:31:00.043Z,99.90
2022-10-05T21:33:01.689Z,99.90
2022-10-05T21:35:03.382Z,99.90
2022-10-05T21:37:05.079Z,99.90
2022-10-05T21:39:06.724Z,99.90
2022-10-05T21:41:08.463Z,99.90
2022-10-05T21:43:10.145Z,99.90
2022-10-05T21:45:11.758Z,99.90
2022-10-05T21:47:13.436Z,99.90
2022-10-05T21:49:19.486Z,99.90
2022-10-05T21:51:23.404Z,99.90
2022-10-05T21:53:26.841Z,99.90
2022-10-05T21:55:28.657Z,99.90
2022-10-05T21:57:30.309Z,99.90
2022-10-05T21:59:33.034Z,99.90
2022-10-05T22:01:36.206Z,99.90
2022-10-05T22:03:38.307Z,99.90
2022-10-05T22:05:40.046Z,99.90
2022-10-05T22:07:41.717Z,99.90
2022-10-05T22:09:43.372Z,99.90
2022-10-05T22:11:48.147Z,99.90
2022-10-05T22:13:51.143Z,99.90
2022-10-05T22:15:56.135Z,99.90
2022-10-05T22:17:58.502Z,99.90
2022-10-05T22:20:00.798Z,99.90
2022-10-05T22:22:02.450Z,99.90
2022-10-05T22:24:04.225Z,99.90
2022-10-05T22:26:06.313Z,99.90
2022-10-05T22:28:10.805Z,99.90
2022-10-05T22:30:14.745Z,99.90
2022-10-05T22:32:16.785Z,99.90
2022-10-05T22:34:18.461Z,99.90
2022-10-05T22:36:20.207Z,99.90
2022-10-05T22:38:21.827Z,99.90
2022-10-05T22:40:23.528Z,99.90
2022-10-05T22:42:25.172Z,99.90
2022-10-05T22:44:26.811Z,99.90
2022-10-05T22:46:28.561Z,99.90
2022-10-05T22:48:30.852Z,99.90
2022-10-05T22:50:32.583Z,99.90
2022-10-05T22:52:34.198Z,99.90
2022-10-05T22:54:37.437Z,99.90
2022-10-05T22:56:39.162Z,99.90
2022-10-05T22:58:41.885Z,99.90
2022-10-05T23:00:59.129Z,99.90
2022-10-05T23:03:00.829Z,99.90
2022-10-05T23:05:02.477Z,99.90
2022-10-05T23:07:04.710Z,99.90
2022-10-05T23:09:06.372Z,99.90
2022-10-05T23:11:11.259Z,99.90
2022-10-05T23:13:12.857Z,99.90
2022-10-05T23:15:14.477Z,99.90
2022-10-05T23:17:19.808Z,99.90
2022-10-05T23:19:21.897Z,99.90
2022-10-05T23:21:24.973Z,99.90
2022-10-05T23:23:27.507Z,99.90
2022-10-05T23:25:29.267Z,99.90
2022-10-05T23:27:41.177Z,99.90
2022-10-05T23:29:42.837Z,99.90
2022-10-05T23:31:45.280Z,99.90
2022-10-05T23:33:47.461Z,99.90
2022-10-05T23:35:51.150Z,99.90
2022-10-05T23:37:52.841Z,99.90
2022-10-05T23:39:54.460Z,99.90
2022-10-05T23:41:56.245Z,99.90
2022-10-05T23:43:57.901Z,99.90
2022-10-05T23:45:59.794Z,99.90
2022-10-05T23:48:01.480Z,99.90
2022-10-05T23:50:03.536Z,99.90
2022-10-05T23:52:05.246Z,99.90
2022-10-05T23:54:07.020Z,99.90
2022-10-05T23:56:08.647Z,99.90
2022-10-05T23:58:10.391Z,99.90
